History for KNJHOBOK40

Lower Manhattan, Hoboken, NJ — Current Conditions
Daily Summary for August 22, 2017
  Current: High: Low: Average:
Temperature: 87.4°F 97.7°F 73.0°F 85.3°F
Dew Point: 69.2°F 75.9°F 67.0°F 70.7°F
Humidity: 54% 95% 45% 73%
Wind Speed: - 0.0mph - 0.0mph
Wind Gust: - 0.0mph - -
Wind: North - - North
Pressure: 29.59in 29.90in 29.59in -
Precipitation: 0.00in      
Statistics for the rest of the month
    High: Low: Average:
Temperature:   102.9°F 64.0°F 79.6°F
Dew Point:   88.7°F 50.5°F 63.8°F
Humidity:   100.0% 23.0% 66.0%
Wind Speed:   0.0mph from the North - 0.0mph
Wind Gust:   0.0mph from the North - -
Wind:   - - North
Pressure:   30.06in 29.57in -
Precipitation:   0.00in    
KNJHOBOK40 Weather Graph
Tabular Data for August 22, 2017
Time Temp. Heat Index Dew Point Pressure Wind Gust Humidity Rainfall
00:17 75.9°F - 67.2°F 29.90in - 74% -
00:26 75.9°F - 67.2°F 29.90in - 74% -
00:38 75.7°F - 67.0°F 29.90in - 74% -
00:48 75.7°F - 67.0°F 29.89in - 74% -
01:08 75.6°F - 67.2°F 29.89in - 75% -
01:18 75.4°F - 67.1°F 29.89in - 75% -
01:38 75.0°F - 67.1°F 29.88in - 76% -
01:48 75.0°F - 67.1°F 29.88in - 76% -
02:09 74.8°F - 67.3°F 29.87in - 77% -
02:19 74.7°F - 67.1°F 29.87in - 77% -
02:48 74.5°F - 67.3°F 29.87in - 78% -
02:49 74.5°F - 67.7°F 29.87in - 79% -
03:09 74.3°F - 67.9°F 29.86in - 80% -
03:19 74.3°F - 67.9°F 29.86in - 80% -
03:40 73.9°F - 68.2°F 29.85in - 82% -
03:46 73.9°F - 68.2°F 29.85in - 82% -
04:10 73.8°F - 69.1°F 29.85in - 85% -
04:30 73.6°F - 69.9°F 29.85in - 88% -
04:40 73.4°F - 70.0°F 29.84in - 89% -
05:00 73.4°F - 70.7°F 29.84in - 91% -
05:11 73.4°F - 70.7°F 29.84in - 91% -
05:31 73.2°F - 70.8°F 29.84in - 92% -
05:41 73.2°F - 71.1°F 29.84in - 93% -
06:01 73.0°F - 71.2°F 29.84in - 94% -
06:11 73.0°F - 71.2°F 29.84in - 94% -
06:31 73.4°F - 71.9°F 29.84in - 95% -
06:42 73.8°F - 72.3°F 29.84in - 95% -
07:02 75.4°F - 73.3°F 29.84in - 93% -
07:12 75.7°F - 73.6°F 29.84in - 93% -
07:42 77.4°F - 74.3°F 29.84in - 90% -
08:13 77.2°F - 74.4°F 29.83in - 91% -
08:33 77.7°F - 74.6°F 29.83in - 90% -
08:43 79.3°F - 75.9°F 29.83in - 89% -
09:03 82.4°F 89.8°F 75.8°F 29.82in - 80% -
09:13 82.2°F 89.3°F 75.6°F 29.82in - 80% -
09:33 84.9°F 93.2°F 75.1°F 29.81in - 72% -
09:43 86.5°F 95.4°F 74.6°F 29.81in - 67% -
10:14 86.2°F 93.0°F 72.9°F 29.80in - 64% -
10:44 87.4°F 95.2°F 73.6°F 29.79in - 63% -
11:14 95.0°F 105.9°F 74.5°F 29.79in - 51% -
11:45 97.7°F 107.9°F 73.4°F 29.78in - 45% -
12:15 96.4°F 107.1°F 73.5°F 29.76in - 47% -
12:45 95.9°F 105.9°F 73.6°F 29.75in - 48% -
13:16 91.2°F 98.5°F 72.1°F 29.74in - 53% -
13:46 89.1°F 95.6°F 71.7°F 29.73in - 56% -
14:16 88.7°F 95.2°F 71.9°F 29.71in - 57% -
14:47 88.7°F 94.3°F 70.9°F 29.69in - 55% -
15:17 89.2°F 94.9°F 70.8°F 29.66in - 54% -
15:47 89.6°F 94.7°F 70.1°F 29.65in - 52% -
16:18 90.1°F 95.2°F 69.5°F 29.63in - 50% -
16:48 89.8°F 94.2°F 69.1°F 29.62in - 50% -
16:57 89.8°F 94.2°F 69.1°F 29.62in - 50% -
17:18 89.4°F 94.4°F 69.4°F 29.61in - 51% -
17:27 89.4°F 94.4°F 69.4°F 29.61in - 51% -
17:49 88.7°F 93.0°F 69.2°F 29.60in - 52% -
17:57 88.7°F 93.0°F 69.2°F 29.60in - 52% -
18:27 87.4°F 91.9°F 69.2°F 29.59in - 54% -
Comma Delimited File
Powered by Weather Underground, Inc.